Time;durP1;ratioP1;P1;durP2;ratioP2;P2;SDS_P1;SDS_P2;PMS_P1;PMS_P2;Temp;Humidity;BMP_temperature;BMP_pressure;BME280_temperature;BME280_humidity;BME280_pressure;Samples;Min_cycle;Max_cycle;Signal;HPM_P1;HPM_P2
2021/11/05 00:00:54;;;;;;;10.52;7.50;;;5.70;99.90;;;;;;5070571;28;20063;-88
2021/11/05 00:03:20;;;;;;;8.93;6.78;;;5.70;99.90;;;;;;5070510;28;20040;-87
2021/11/05 00:05:46;;;;;;;8.50;6.78;;;5.70;99.90;;;;;;5067732;28;20524;-86
2021/11/05 00:08:12;;;;;;;8.55;6.60;;;5.60;99.90;;;;;;5082414;28;20032;-86
2021/11/05 00:10:41;;;;;;;9.07;6.55;;;5.60;99.90;;;;;;5088705;28;20081;-87
2021/11/05 00:13:10;;;;;;;7.97;6.57;;;5.60;99.90;;;;;;5087896;28;20161;-87
2021/11/05 00:15:36;;;;;;;8.25;6.00;;;5.60;99.90;;;;;;5074687;28;20032;-86
2021/11/05 00:18:02;;;;;;;9.15;6.78;;;5.50;99.90;;;;;;5074619;28;20050;-86
2021/11/05 00:20:29;;;;;;;8.82;6.45;;;5.50;99.90;;;;;;5075253;28;20823;-86
2021/11/05 00:22:55;;;;;;;7.85;5.90;;;5.50;99.90;;;;;;5068025;28;20506;-85
2021/11/05 00:25:22;;;;;;;8.55;6.07;;;5.50;99.90;;;;;;5062947;28;20028;-86
2021/11/05 00:27:48;;;;;;;7.50;5.63;;;5.50;99.90;;;;;;5070324;28;20553;-86
2021/11/05 00:30:15;;;;;;;8.50;5.90;;;5.40;99.90;;;;;;5059902;28;20040;-86
2021/11/05 00:32:42;;;;;;;7.25;5.85;;;5.40;99.90;;;;;;5085339;28;20105;-86
2021/11/05 00:35:11;;;;;;;7.78;6.53;;;5.40;99.90;;;;;;5063661;28;20024;-86
2021/11/05 00:37:37;;;;;;;7.55;5.65;;;5.40;99.90;;;;;;5060738;28;20119;-87
2021/11/05 00:40:04;;;;;;;7.63;5.85;;;5.30;99.90;;;;;;5069158;28;20116;-87
2021/11/05 00:42:30;;;;;;;7.95;5.57;;;5.30;99.90;;;;;;5065507;28;20119;-88
2021/11/05 00:44:56;;;;;;;6.57;5.15;;;5.30;99.90;;;;;;5066134;28;20120;-87
2021/11/05 00:47:21;;;;;;;6.80;5.35;;;5.30;99.90;;;;;;5060162;28;20391;-87
2021/11/05 00:49:47;;;;;;;7.15;5.40;;;5.30;99.90;;;;;;5069680;28;20598;-86
2021/11/05 00:52:13;;;;;;;7.63;5.03;;;5.20;99.90;;;;;;5066925;28;20691;-87
2021/11/05 00:54:39;;;;;;;5.95;4.45;;;5.20;99.90;;;;;;5066256;28;20129;-86
2021/11/05 00:57:05;;;;;;;7.72;4.93;;;5.30;99.90;;;;;;5059541;28;20145;-87
2021/11/05 00:59:32;;;;;;;6.40;4.88;;;5.20;99.90;;;;;;5068459;28;20075;-86
2021/11/05 01:01:58;;;;;;;7.70;4.43;;;5.20;99.90;;;;;;5058329;28;20074;-87
2021/11/05 01:04:23;;;;;;;7.90;5.03;;;5.20;99.90;;;;;;5075445;28;20051;-86
2021/11/05 01:06:49;;;;;;;6.68;4.72;;;5.20;99.90;;;;;;5074872;28;20051;-86
2021/11/05 01:09:16;;;;;;;6.95;4.43;;;5.20;99.90;;;;;;5075592;28;20029;-87
2021/11/05 01:11:42;;;;;;;6.25;4.57;;;5.20;99.90;;;;;;5075498;28;20036;-86
2021/11/05 01:14:09;;;;;;;5.85;4.60;;;5.20;99.90;;;;;;5074986;28;20556;-86
2021/11/05 01:16:35;;;;;;;7.22;4.65;;;5.20;99.90;;;;;;5093956;28;20051;-86
2021/11/05 01:19:03;;;;;;;6.82;4.93;;;5.20;99.90;;;;;;5072517;28;20056;-86
2021/11/05 01:21:29;;;;;;;6.15;4.40;;;5.20;99.90;;;;;;5062138;28;20063;-86
2021/11/05 01:23:55;;;;;;;5.28;4.05;;;5.20;99.90;;;;;;5076182;28;20071;-86
2021/11/05 01:26:21;;;;;;;6.20;4.13;;;5.20;99.90;;;;;;5073565;28;20109;-86
2021/11/05 01:28:48;;;;;;;7.28;5.05;;;5.20;99.90;;;;;;5057907;28;20068;-84
2021/11/05 01:31:14;;;;;;;6.45;4.78;;;5.20;99.90;;;;;;5053959;28;20090;-86
2021/11/05 01:33:40;;;;;;;5.93;4.03;;;5.20;99.90;;;;;;5064886;28;20404;-86
2021/11/05 01:36:06;;;;;;;6.90;4.75;;;5.20;99.90;;;;;;5076204;28;20117;-85
2021/11/05 01:38:31;;;;;;;7.93;4.60;;;5.20;99.90;;;;;;5062287;28;20500;-85
2021/11/05 01:40:57;;;;;;;5.35;3.97;;;5.20;99.90;;;;;;5056227;28;20205;-86
2021/11/05 01:43:24;;;;;;;6.88;4.28;;;5.20;99.90;;;;;;5056982;28;20036;-87
2021/11/05 01:45:50;;;;;;;5.80;4.03;;;5.10;99.90;;;;;;5075732;28;20252;-85
2021/11/05 01:48:17;;;;;;;5.78;4.30;;;5.10;99.90;;;;;;5094105;28;20696;-86
2021/11/05 01:50:43;;;;;;;5.70;3.95;;;5.10;99.90;;;;;;5075851;28;20059;-86
2021/11/05 01:53:12;;;;;;;5.68;3.88;;;5.10;99.90;;;;;;5093048;28;20024;-86
2021/11/05 01:55:38;;;;;;;6.45;3.70;;;5.10;99.90;;;;;;5069439;28;20044;-85
2021/11/05 01:58:04;;;;;;;5.43;4.05;;;5.10;99.90;;;;;;5067123;28;20098;-86
2021/11/05 02:00:32;;;;;;;7.93;3.90;;;5.10;99.90;;;;;;5058666;28;20110;-86
2021/11/05 02:02:58;;;;;;;6.53;4.13;;;5.10;99.90;;;;;;5064974;28;20036;-87
2021/11/05 02:05:24;;;;;;;5.90;4.10;;;5.20;99.90;;;;;;5090459;28;20499;-85
2021/11/05 02:07:56;;;;;;;5.32;3.47;;;5.10;99.90;;;;;;5072163;28;20036;-85
2021/11/05 02:10:25;;;;;;;5.47;3.35;;;5.10;99.90;;;;;;5075480;28;20040;-87
2021/11/05 02:12:52;;;;;;;5.40;3.70;;;5.00;99.90;;;;;;5074127;28;20060;-86
2021/11/05 02:15:19;;;;;;;6.00;3.42;;;5.00;99.90;;;;;;5074906;28;20024;-86
2021/11/05 02:17:48;;;;;;;5.05;3.47;;;5.00;99.90;;;;;;5067754;28;20044;-86
2021/11/05 02:20:18;;;;;;;5.53;3.72;;;5.00;99.90;;;;;;5067097;28;20028;-86
2021/11/05 02:22:44;;;;;;;5.25;3.47;;;5.00;99.90;;;;;;5059279;28;20063;-86
2021/11/05 02:25:13;;;;;;;6.13;3.42;;;5.00;99.90;;;;;;5063163;28;20036;-86
2021/11/05 02:27:39;;;;;;;5.05;3.30;;;4.90;99.90;;;;;;5073559;28;20040;-86
2021/11/05 02:30:07;;;;;;;5.95;3.55;;;4.90;99.90;;;;;;5074434;28;20036;-86
2021/11/05 02:32:38;;;;;;;5.70;3.65;;;4.90;99.90;;;;;;5075002;28;20028;-85
2021/11/05 02:35:05;;;;;;;4.82;3.58;;;4.90;99.90;;;;;;5076299;28;20035;-84
2021/11/05 02:37:31;;;;;;;5.38;3.10;;;4.90;99.90;;;;;;5060331;28;20543;-85
2021/11/05 02:39:57;;;;;;;4.82;3.08;;;4.90;99.90;;;;;;5094723;28;20034;-85
2021/11/05 02:42:23;;;;;;;5.28;3.05;;;4.90;99.90;;;;;;5067322;28;20123;-84
2021/11/05 02:44:50;;;;;;;4.78;2.63;;;4.80;99.90;;;;;;5069830;28;20083;-85
2021/11/05 02:47:25;;;;;;;4.90;2.67;;;4.80;99.90;;;;;;5076338;28;20377;-85
2021/11/05 02:49:59;;;;;;;4.22;2.42;;;4.80;99.90;;;;;;5073294;28;20032;-85
2021/11/05 02:52:25;;;;;;;6.38;3.30;;;4.80;99.90;;;;;;5076061;28;20039;-85
2021/11/05 02:54:50;;;;;;;5.75;2.58;;;4.90;99.90;;;;;;5076014;28;20040;-85
2021/11/05 02:57:17;;;;;;;5.95;2.70;;;4.80;99.90;;;;;;5059436;28;20134;-85
2021/11/05 02:59:43;;;;;;;3.90;2.15;;;4.80;99.90;;;;;;5092860;28;20024;-84
2021/11/05 03:02:09;;;;;;;5.85;2.30;;;4.90;99.90;;;;;;5075050;28;20032;-86
2021/11/05 03:04:36;;;;;;;3.65;2.08;;;4.90;99.90;;;;;;5071719;28;20036;-87
2021/11/05 03:07:05;;;;;;;4.55;2.20;;;4.90;99.90;;;;;;5070332;28;20118;-85
2021/11/05 03:09:37;;;;;;;3.80;2.10;;;4.90;99.90;;;;;;5057352;28;20029;-86
2021/11/05 03:12:04;;;;;;;4.67;2.20;;;4.90;99.90;;;;;;5069533;28;20131;-85
2021/11/05 03:14:30;;;;;;;4.40;2.13;;;4.80;99.90;;;;;;5073942;28;20052;-86
2021/11/05 03:16:59;;;;;;;5.30;2.05;;;4.80;99.90;;;;;;5056011;28;20439;-86
2021/11/05 03:19:25;;;;;;;4.65;1.80;;;4.80;99.90;;;;;;5055665;28;20626;-85
2021/11/05 03:21:51;;;;;;;3.45;1.60;;;4.80;99.90;;;;;;5078265;28;20036;-85
2021/11/05 03:24:17;;;;;;;3.10;1.95;;;4.80;99.90;;;;;;5076280;28;20040;-86
2021/11/05 03:26:43;;;;;;;4.43;1.92;;;4.80;99.90;;;;;;5094287;28;20035;-86
2021/11/05 03:29:09;;;;;;;2.17;1.25;;;4.80;99.90;;;;;;5076511;28;20113;-86
2021/11/05 03:31:36;;;;;;;2.95;1.80;;;4.80;99.90;;;;;;5093723;28;20539;-86
2021/11/05 03:34:03;;;;;;;3.80;1.85;;;4.80;99.90;;;;;;5069759;28;20120;-86
2021/11/05 03:36:29;;;;;;;4.05;1.85;;;4.80;99.90;;;;;;5065657;28;20039;-86
2021/11/05 03:38:59;;;;;;;6.20;1.67;;;4.80;99.90;;;;;;5075976;28;20076;-86
2021/11/05 03:41:25;;;;;;;3.22;1.80;;;4.80;99.90;;;;;;5076280;28;20491;-86
2021/11/05 03:43:53;;;;;;;3.75;1.75;;;4.80;99.90;;;;;;5070937;28;20041;-86
2021/11/05 03:46:19;;;;;;;3.33;1.52;;;4.80;99.90;;;;;;5061666;28;20052;-86
2021/11/05 03:48:46;;;;;;;3.47;1.48;;;4.80;99.90;;;;;;5062694;28;20122;-86
2021/11/05 03:51:12;;;;;;;2.13;1.23;;;4.80;99.90;;;;;;5062580;28;20035;-86
2021/11/05 03:53:38;;;;;;;2.42;1.48;;;4.70;99.90;;;;;;5082112;28;20093;-86
2021/11/05 03:56:12;;;;;;;3.13;1.33;;;4.70;99.90;;;;;;5083029;28;20036;-86
2021/11/05 03:58:38;;;;;;;3.33;1.40;;;4.80;99.90;;;;;;5082677;28;20028;-87
2021/11/05 04:01:04;;;;;;;3.35;1.60;;;4.70;99.90;;;;;;5067505;28;20124;-86
2021/11/05 04:03:31;;;;;;;2.65;1.33;;;4.70;99.90;;;;;;5062412;28;20048;-86
2021/11/05 04:06:00;;;;;;;4.60;1.55;;;4.60;99.90;;;;;;5062508;28;20479;-86
2021/11/05 04:08:26;;;;;;;4.78;1.60;;;4.70;99.90;;;;;;5062072;28;20094;-86
2021/11/05 04:10:52;;;;;;;3.03;1.52;;;4.70;99.90;;;;;;5079915;28;20700;-86
2021/11/05 04:13:18;;;;;;;4.50;1.95;;;4.70;99.90;;;;;;5097540;28;20055;-86
2021/11/05 04:15:44;;;;;;;2.80;1.67;;;4.70;99.90;;;;;;5082450;28;20040;-86
2021/11/05 04:18:10;;;;;;;5.03;2.20;;;4.70;99.90;;;;;;5082306;28;20032;-86
2021/11/05 04:20:36;;;;;;;5.35;1.90;;;4.70;99.90;;;;;;5082828;28;20032;-86
2021/11/05 04:23:06;;;;;;;3.22;2.08;;;4.70;99.90;;;;;;5067369;28;20598;-86
2021/11/05 04:25:33;;;;;;;3.92;2.10;;;4.70;99.90;;;;;;5062190;28;20039;-87
2021/11/05 04:28:00;;;;;;;3.30;1.90;;;4.60;99.90;;;;;;5062699;28;20550;-87
2021/11/05 04:30:26;;;;;;;3.53;2.20;;;4.60;99.90;;;;;;5045731;28;20131;-86
2021/11/05 04:32:51;;;;;;;2.90;1.95;;;4.50;99.90;;;;;;5075837;28;20036;-86
2021/11/05 04:35:17;;;;;;;3.25;2.05;;;4.50;99.90;;;;;;5065702;28;20036;-86
2021/11/05 04:37:43;;;;;;;4.13;2.17;;;4.50;99.90;;;;;;5077773;28;20046;-86
2021/11/05 04:40:10;;;;;;;3.90;1.70;;;4.40;99.90;;;;;;5062223;28;20087;-86
2021/11/05 04:42:35;;;;;;;2.92;1.88;;;4.40;99.90;;;;;;5062265;28;20024;-86
2021/11/05 04:45:03;;;;;;;3.58;2.42;;;4.40;99.90;;;;;;5079950;28;20037;-86
2021/11/05 04:47:29;;;;;;;4.03;2.63;;;4.40;99.90;;;;;;5063991;28;20426;-86
2021/11/05 04:49:55;;;;;;;3.65;2.45;;;4.50;99.90;;;;;;5075990;28;20124;-86
2021/11/05 04:52:21;;;;;;;3.92;2.42;;;4.40;99.90;;;;;;5070823;28;20115;-87
2021/11/05 04:54:46;;;;;;;6.03;2.83;;;4.40;99.90;;;;;;5082271;28;20047;-87
2021/11/05 04:57:12;;;;;;;5.55;2.90;;;4.40;99.90;;;;;;5062856;28;20545;-87
2021/11/05 04:59:38;;;;;;;4.35;2.92;;;4.40;99.90;;;;;;5062036;28;20032;-86
2021/11/05 05:02:05;;;;;;;4.70;3.03;;;4.40;99.90;;;;;;5079121;28;20024;-86
2021/11/05 05:04:33;;;;;;;5.85;3.50;;;4.40;99.90;;;;;;5068135;28;20051;-86
2021/11/05 05:07:02;;;;;;;5.22;3.10;;;4.40;99.90;;;;;;5058414;28;20187;-86
2021/11/05 05:09:27;;;;;;;5.65;3.58;;;4.40;99.90;;;;;;5058205;28;20032;-86
2021/11/05 05:11:54;;;;;;;7.05;3.78;;;4.40;99.90;;;;;;5058471;28;20040;-86
2021/11/05 05:14:20;;;;;;;4.82;3.20;;;4.40;99.90;;;;;;5071932;28;20071;-87
2021/11/05 05:16:46;;;;;;;5.22;3.67;;;4.30;99.90;;;;;;5075512;28;20123;-86
2021/11/05 05:19:12;;;;;;;5.15;3.22;;;4.30;99.90;;;;;;5075132;28;20480;-86
2021/11/05 05:21:42;;;;;;;6.60;3.28;;;4.30;99.90;;;;;;5075614;28;20029;-86
2021/11/05 05:24:08;;;;;;;5.03;3.50;;;4.20;99.90;;;;;;5078429;28;20115;-87
2021/11/05 05:26:37;;;;;;;6.15;3.65;;;4.20;99.90;;;;;;5078680;28;20079;-87
2021/11/05 05:29:03;;;;;;;5.57;3.70;;;4.20;99.90;;;;;;5078718;28;20046;-87
2021/11/05 05:31:29;;;;;;;5.38;3.40;;;4.10;99.90;;;;;;5078974;28;20472;-87
2021/11/05 05:33:55;;;;;;;6.10;3.67;;;4.10;99.90;;;;;;5078945;28;20028;-86
2021/11/05 05:36:21;;;;;;;6.45;3.60;;;4.10;99.90;;;;;;5078313;28;20031;-86
2021/11/05 05:38:46;;;;;;;6.18;3.63;;;4.00;99.90;;;;;;5066776;28;20055;-86
2021/11/05 05:41:14;;;;;;;5.75;3.72;;;4.00;99.90;;;;;;5075089;28;20029;-86
2021/11/05 05:43:39;;;;;;;7.18;4.05;;;3.90;99.90;;;;;;5076907;28;20047;-85
2021/11/05 05:46:05;;;;;;;5.10;3.58;;;3.90;99.90;;;;;;5078499;28;20028;-85
2021/11/05 05:48:31;;;;;;;6.07;4.05;;;3.90;99.90;;;;;;5078106;28;20035;-85
2021/11/05 05:50:57;;;;;;;5.75;3.95;;;3.90;99.90;;;;;;5077978;28;20028;-85
2021/11/05 05:53:22;;;;;;;6.78;4.68;;;3.90;99.90;;;;;;5078427;28;20177;-85
2021/11/05 05:55:48;;;;;;;6.57;4.60;;;4.00;99.90;;;;;;5078203;28;20027;-85
2021/11/05 05:58:15;;;;;;;6.45;4.38;;;4.00;99.90;;;;;;5078319;28;20036;-87
2021/11/05 06:00:40;;;;;;;8.02;5.28;;;4.00;99.90;;;;;;5078236;28;20120;-85
2021/11/05 06:03:06;;;;;;;6.53;4.93;;;4.10;99.90;;;;;;5077743;28;20123;-86
2021/11/05 06:05:32;;;;;;;8.73;4.95;;;4.10;99.90;;;;;;5077625;28;20032;-86
2021/11/05 06:07:59;;;;;;;7.60;5.20;;;4.20;99.90;;;;;;5077023;28;20044;-85
2021/11/05 06:10:25;;;;;;;6.90;5.05;;;4.20;99.90;;;;;;5077195;28;20036;-86
2021/11/05 06:12:51;;;;;;;9.68;5.32;;;4.30;99.90;;;;;;5073992;28;20056;-85
2021/11/05 06:15:17;;;;;;;18.95;6.50;;;4.30;99.90;;;;;;5074090;28;20042;-85
2021/11/05 06:17:45;;;;;;;9.13;5.82;;;4.40;99.90;;;;;;5073569;28;20029;-85
2021/11/05 06:20:11;;;;;;;9.57;5.88;;;4.40;99.90;;;;;;5057652;28;20036;-85
2021/11/05 06:22:38;;;;;;;12.63;5.95;;;4.50;99.90;;;;;;5056985;28;20075;-86
2021/11/05 06:25:06;;;;;;;8.68;5.93;;;4.50;99.90;;;;;;5057485;28;20476;-86
2021/11/05 06:27:32;;;;;;;10.88;5.95;;;4.50;99.90;;;;;;5076905;28;20044;-86
2021/11/05 06:29:57;;;;;;;8.52;6.20;;;4.60;99.90;;;;;;5077241;28;20028;-86
2021/11/05 06:32:24;;;;;;;13.93;6.85;;;4.60;99.90;;;;;;5067883;28;20453;-87
2021/11/05 06:34:50;;;;;;;10.65;6.63;;;4.60;99.90;;;;;;5040922;28;20039;-86
2021/11/05 06:37:17;;;;;;;9.93;5.60;;;4.70;99.90;;;;;;5057441;28;20036;-86
2021/11/05 06:39:43;;;;;;;11.50;7.07;;;4.70;99.90;;;;;;5057011;28;20404;-86
2021/11/05 06:42:10;;;;;;;15.45;6.25;;;4.70;99.90;;;;;;5040888;28;20452;-86
2021/11/05 06:44:37;;;;;;;12.60;6.03;;;4.70;99.90;;;;;;5059606;28;20056;-87
2021/11/05 06:47:03;;;;;;;14.38;6.65;;;4.80;99.90;;;;;;5077238;28;20484;-87
2021/11/05 06:49:28;;;;;;;11.93;5.53;;;4.70;99.90;;;;;;5092967;28;20046;-87
2021/11/05 06:51:56;;;;;;;12.55;5.78;;;4.70;99.90;;;;;;5057507;28;20043;-87
2021/11/05 06:54:25;;;;;;;12.95;5.45;;;4.80;99.90;;;;;;5040485;28;20040;-88
2021/11/05 06:56:52;;;;;;;8.88;5.05;;;4.80;99.90;;;;;;5063544;28;20036;-87
2021/11/05 06:59:18;;;;;;;11.10;4.80;;;4.80;99.90;;;;;;5073435;28;20034;-87
2021/11/05 07:01:44;;;;;;;6.57;4.28;;;4.70;99.90;;;;;;5057712;28;20032;-87
2021/11/05 07:04:10;;;;;;;6.95;4.55;;;4.70;99.90;;;;;;5040657;28;20033;-87
2021/11/05 07:06:44;;;;;;;9.60;4.05;;;4.70;99.90;;;;;;5066396;28;20028;-87
2021/11/05 07:09:16;;;;;;;10.35;4.10;;;4.70;99.90;;;;;;5060329;28;20072;-88
2021/11/05 07:11:48;;;;;;;5.50;3.83;;;4.70;99.90;;;;;;5036644;28;20473;-87
2021/11/05 07:14:15;;;;;;;6.53;3.72;;;4.70;99.90;;;;;;5020606;28;20624;-88
2021/11/05 07:16:41;;;;;;;4.65;3.13;;;4.70;99.90;;;;;;5047839;28;20036;-87
2021/11/05 07:19:09;;;;;;;4.80;3.15;;;4.70;99.90;;;;;;5074385;28;20028;-87
2021/11/05 07:21:36;;;;;;;5.90;3.15;;;4.70;99.90;;;;;;5039858;28;20120;-87
2021/11/05 07:24:06;;;;;;;6.22;3.15;;;4.70;99.90;;;;;;5074539;28;20047;-88
2021/11/05 07:26:41;;;;;;;7.60;3.05;;;4.80;99.90;;;;;;5074050;28;20120;-88
2021/11/05 07:29:11;;;;;;;6.07;3.20;;;4.80;99.90;;;;;;5056224;28;20127;-88
2021/11/05 07:31:37;;;;;;;7.30;3.30;;;4.80;99.90;;;;;;5040165;28;20507;-88
2021/11/05 07:34:05;;;;;;;4.93;3.55;;;4.90;99.90;;;;;;5056665;28;20115;-88
2021/11/05 07:36:30;;;;;;;5.25;3.78;;;4.90;99.90;;;;;;5056137;28;20094;-87
2021/11/05 07:38:59;;;;;;;5.95;4.03;;;5.00;99.90;;;;;;5055520;28;20049;-87
2021/11/05 07:41:25;;;;;;;5.22;3.90;;;5.10;99.90;;;;;;5074329;28;20028;-87
2021/11/05 07:43:55;;;;;;;6.70;4.32;;;5.10;99.90;;;;;;5056477;28;20040;-88
2021/11/05 07:46:21;;;;;;;8.18;4.70;;;5.10;99.90;;;;;;5055327;28;20033;-88
2021/11/05 07:48:47;;;;;;;5.50;4.15;;;5.20;99.90;;;;;;5047871;28;20048;-88
2021/11/05 07:51:14;;;;;;;9.82;4.68;;;5.30;99.90;;;;;;5073876;28;20032;-87
2021/11/05 07:53:40;;;;;;;8.95;4.60;;;5.40;99.90;;;;;;5055996;28;20025;-85
2021/11/05 07:56:11;;;;;;;6.28;4.97;;;5.40;99.90;;;;;;5074175;28;20357;-87
2021/11/05 07:58:36;;;;;;;9.30;5.38;;;5.50;99.90;;;;;;5055640;28;20066;-87
2021/11/05 08:01:03;;;;;;;6.85;5.25;;;5.50;99.90;;;;;;5055834;28;20086;-87
2021/11/05 08:03:30;;;;;;;6.70;5.28;;;5.50;99.90;;;;;;5039402;28;20087;-87
2021/11/05 08:05:56;;;;;;;8.05;5.30;;;5.50;99.90;;;;;;5055602;28;20043;-88
2021/11/05 08:08:22;;;;;;;6.32;5.25;;;5.60;99.90;;;;;;5039127;28;20045;-87
2021/11/05 08:10:48;;;;;;;7.15;5.07;;;5.60;99.90;;;;;;5055586;28;20147;-87
2021/11/05 08:13:15;;;;;;;7.40;5.60;;;5.70;99.90;;;;;;5067732;28;20396;-87
2021/11/05 08:15:45;;;;;;;6.47;4.80;;;5.70;99.90;;;;;;5092684;28;20093;-87
2021/11/05 08:18:11;;;;;;;6.85;4.88;;;5.80;99.90;;;;;;5071289;28;20063;-87
2021/11/05 08:20:38;;;;;;;5.75;4.47;;;5.90;99.90;;;;;;5075625;28;20068;-87
2021/11/05 08:23:03;;;;;;;7.00;4.63;;;5.90;99.90;;;;;;5069772;28;20071;-87
2021/11/05 08:25:31;;;;;;;6.65;4.85;;;6.00;99.90;;;;;;5092273;28;20506;-87
2021/11/05 08:27:58;;;;;;;6.18;4.40;;;6.10;99.90;;;;;;5084803;28;20040;-87
2021/11/05 08:30:27;;;;;;;8.05;5.00;;;6.20;99.90;;;;;;5092695;28;20028;-87
2021/11/05 08:32:57;;;;;;;4.88;4.13;;;6.30;99.90;;;;;;5087281;28;20036;-86
2021/11/05 08:35:27;;;;;;;9.10;5.97;;;6.40;99.90;;;;;;5096430;28;20036;-86
2021/11/05 08:37:54;;;;;;;10.02;6.13;;;6.50;99.90;;;;;;5088816;28;20070;-87
2021/11/05 08:40:20;;;;;;;9.77;6.03;;;6.60;99.90;;;;;;5095922;28;20024;-87
2021/11/05 08:42:46;;;;;;;10.35;6.38;;;6.70;99.90;;;;;;5096755;28;20043;-87
2021/11/05 08:45:12;;;;;;;10.98;6.63;;;6.80;99.90;;;;;;5091109;28;20039;-87
2021/11/05 08:47:40;;;;;;;10.05;7.25;;;6.90;99.90;;;;;;5092758;28;20043;-86
2021/11/05 08:50:16;;;;;;;11.85;8.18;;;7.00;99.90;;;;;;5090156;28;20038;-86
2021/11/05 08:52:43;;;;;;;9.50;7.07;;;7.40;99.90;;;;;;5096212;28;20055;-86
2021/11/05 08:55:10;;;;;;;7.72;5.93;;;8.70;99.90;;;;;;5090680;28;20063;-87
2021/11/05 08:57:39;;;;;;;6.18;3.97;;;10.30;99.90;;;;;;5096610;28;20041;-87
2021/11/05 09:00:13;;;;;;;5.07;2.95;;;11.60;99.90;;;;;;5073361;28;20480;-87
2021/11/05 09:02:41;;;;;;;4.88;2.20;;;12.70;99.90;;;;;;5095426;28;20036;-87
2021/11/05 09:05:07;;;;;;;3.60;1.88;;;13.70;99.90;;;;;;5089803;28;20488;-87
2021/11/05 09:07:34;;;;;;;5.93;2.20;;;14.70;99.90;;;;;;5095612;28;20028;-87
2021/11/05 09:10:00;;;;;;;4.10;2.00;;;15.50;99.90;;;;;;5072582;28;20067;-87
2021/11/05 09:12:26;;;;;;;4.03;1.80;;;16.20;99.90;;;;;;5095118;28;20028;-87
2021/11/05 09:14:51;;;;;;;5.20;1.80;;;16.50;99.90;;;;;;5069103;28;20085;-87
2021/11/05 09:17:18;;;;;;;5.50;2.00;;;16.90;99.90;;;;;;5061084;28;20038;-87
2021/11/05 09:19:46;;;;;;;4.35;2.00;;;17.20;99.90;;;;;;5074206;28;20036;-87
2021/11/05 09:22:12;;;;;;;4.07;1.80;;;17.50;99.90;;;;;;5065292;28;20021;-87
2021/11/05 09:24:47;;;;;;;4.45;1.98;;;17.70;99.90;;;;;;5095743;28;20040;-87
2021/11/05 09:27:13;;;;;;;5.70;2.20;;;17.80;99.90;;;;;;5078377;28;20477;-86
2021/11/05 09:29:42;;;;;;;3.70;1.75;;;17.60;99.90;;;;;;5077808;28;20111;-87
2021/11/05 09:32:08;;;;;;;4.93;2.42;;;17.80;99.90;;;;;;5078055;28;20036;-87
2021/11/05 09:34:34;;;;;;;4.82;2.33;;;17.70;99.90;;;;;;5078420;28;20472;-86
2021/11/05 09:37:03;;;;;;;5.75;3.17;;;17.50;99.90;;;;;;5077297;28;20055;-86
2021/11/05 09:39:32;;;;;;;8.15;3.70;;;17.20;99.90;;;;;;5076235;28;20150;-87
2021/11/05 09:41:59;;;;;;;6.50;3.55;;;17.30;99.90;;;;;;5077629;28;20470;-86
2021/11/05 09:44:29;;;;;;;5.95;3.65;;;17.40;99.90;;;;;;5076937;28;20036;-86
2021/11/05 09:47:04;;;;;;;5.53;3.38;;;17.80;99.90;;;;;;5077178;28;20093;-86
2021/11/05 09:49:31;;;;;;;6.07;3.67;;;18.40;99.90;;;;;;5061490;28;20571;-86
2021/11/05 09:51:59;;;;;;;6.47;3.00;;;18.80;99.90;;;;;;5076527;28;20073;-86
2021/11/05 09:54:27;;;;;;;4.40;2.90;;;18.50;99.90;;;;;;5077157;28;20430;-86
2021/11/05 09:56:53;;;;;;;5.10;2.38;;;18.20;99.90;;;;;;5076232;28;20028;-86
2021/11/05 09:59:20;;;;;;;6.15;2.75;;;17.70;99.90;;;;;;5074023;28;20123;-86
2021/11/05 10:01:46;;;;;;;4.90;2.70;;;17.20;99.90;;;;;;5073573;28;20028;-86
2021/11/05 10:04:12;;;;;;;4.88;2.50;;;16.60;99.90;;;;;;5091899;28;20085;-86
2021/11/05 10:06:39;;;;;;;5.35;2.65;;;16.30;99.90;;;;;;5074552;28;20075;-87
2021/11/05 10:09:15;;;;;;;4.45;2.60;;;16.00;99.90;;;;;;5075342;28;20032;-86
2021/11/05 10:11:41;;;;;;;3.58;2.28;;;15.60;99.90;;;;;;5072638;28;20373;-86
2021/11/05 10:14:20;;;;;;;4.63;2.65;;;15.00;99.90;;;;;;5075325;28;20101;-86
2021/11/05 10:17:09;;;;;;;4.32;2.60;;;15.20;99.90;;;;;;5076452;28;20249;-86
2021/11/05 10:19:56;;;;;;;5.03;2.60;;;16.40;99.90;;;;;;5074143;28;20031;-86
2021/11/05 10:22:56;;;;;;;4.93;2.63;;;17.90;99.90;;;;;;5092324;28;20040;-87
2021/11/05 10:25:30;;;;;;;5.95;3.10;;;19.40;99.90;;;;;;5044671;28;20044;-86
2021/11/05 10:28:06;;;;;;;6.25;2.80;;;19.80;99.90;;;;;;5092642;28;20036;-86
2021/11/05 10:30:35;;;;;;;7.10;2.80;;;20.30;99.90;;;;;;5063373;28;20036;-84
2021/11/05 10:33:04;;;;;;;5.90;2.80;;;20.60;99.90;;;;;;5068232;28;20546;-83
2021/11/05 10:35:30;;;;;;;6.78;2.20;;;20.80;99.90;;;;;;5057588;28;20036;-84
2021/11/05 10:38:04;;;;;;;4.40;1.95;;;21.30;99.90;;;;;;5068106;28;20090;-85
2021/11/05 10:40:35;;;;;;;4.47;2.10;;;21.40;99.90;;;;;;5082071;28;20078;-85
2021/11/05 10:43:02;;;;;;;6.55;2.13;;;21.50;99.90;;;;;;5059115;28;20042;-85
2021/11/05 10:45:29;;;;;;;4.72;2.03;;;21.70;99.90;;;;;;5071169;28;20093;-83
2021/11/05 10:47:55;;;;;;;3.80;2.13;;;21.80;99.90;;;;;;5073972;28;20395;-85
2021/11/05 10:51:02;;;;;;;6.72;1.88;;;21.70;99.90;;;;;;5073568;28;20032;-85
2021/11/05 10:53:42;;;;;;;5.82;1.70;;;21.90;99.90;;;;;;5023927;28;20135;-85
2021/11/05 10:56:20;;;;;;;3.20;1.20;;;22.30;99.90;;;;;;5065714;28;20032;-85
2021/11/05 10:59:04;;;;;;;6.35;1.90;;;22.50;99.90;;;;;;5066301;28;20051;-85
2021/11/05 11:01:34;;;;;;;3.40;1.45;;;22.40;99.90;;;;;;5059077;28;20111;-86
2021/11/05 11:04:07;;;;;;;5.85;1.40;;;22.20;99.90;;;;;;5073271;28;20047;-85
2021/11/05 11:06:44;;;;;;;4.18;1.35;;;22.70;99.90;;;;;;5092218;28;20036;-85
2021/11/05 11:09:22;;;;;;;6.72;1.50;;;23.20;99.90;;;;;;5091849;28;20111;-86
2021/11/05 11:11:53;;;;;;;4.97;1.77;;;23.00;99.90;;;;;;5058542;28;20032;-86
2021/11/05 11:14:30;;;;;;;3.97;1.30;;;23.00;99.90;;;;;;5082698;28;20059;-83
2021/11/05 11:17:01;;;;;;;3.65;1.35;;;23.00;99.90;;;;;;5085876;28;20059;-85
2021/11/05 11:19:34;;;;;;;4.10;1.70;;;22.90;99.90;;;;;;5055764;28;20052;-85
2021/11/05 11:22:06;;;;;;;2.97;1.15;;;22.90;99.90;;;;;;5077755;28;20060;-85
2021/11/05 11:24:39;;;;;;;4.80;1.77;;;23.00;99.90;;;;;;5063026;28;20045;-85
2021/11/05 11:27:07;;;;;;;3.78;1.85;;;23.40;99.90;;;;;;5068556;28;20044;-85
2021/11/05 11:29:35;;;;;;;3.55;1.17;;;23.30;99.90;;;;;;5053093;28;20112;-86
2021/11/05 11:32:07;;;;;;;2.92;1.20;;;22.90;99.90;;;;;;5059452;28;20665;-84
2021/11/05 11:34:35;;;;;;;3.25;0.90;;;22.90;99.90;;;;;;5061774;28;20032;-85
2021/11/05 11:37:04;;;;;;;3.97;1.10;;;23.30;99.90;;;;;;5079336;28;20187;-85
2021/11/05 11:39:32;;;;;;;5.28;1.30;;;23.30;99.90;;;;;;5044264;28;20044;-85
2021/11/05 11:42:08;;;;;;;3.97;1.10;;;23.00;99.90;;;;;;5058968;28;20287;-86
2021/11/05 11:44:37;;;;;;;3.65;0.95;;;21.70;99.90;;;;;;5078609;28;20032;-85
2021/11/05 11:47:05;;;;;;;4.78;1.00;;;20.20;99.90;;;;;;5061001;28;20048;-85
2021/11/05 11:49:47;;;;;;;3.33;0.93;;;18.90;99.90;;;;;;5087682;28;20097;-85
2021/11/05 11:52:18;;;;;;;2.35;0.90;;;18.10;99.90;;;;;;5061018;28;20116;-85
2021/11/05 11:54:50;;;;;;;3.33;0.88;;;18.40;99.90;;;;;;5061126;28;20048;-85
2021/11/05 11:57:24;;;;;;;3.75;0.50;;;17.90;99.90;;;;;;5053432;28;20147;-86
2021/11/05 12:00:08;;;;;;;4.10;0.98;;;17.40;99.90;;;;;;5068611;28;20179;-85
2021/11/05 12:02:37;;;;;;;3.80;0.85;;;16.90;99.90;;;;;;5070710;28;20029;-85
2021/11/05 12:05:30;;;;;;;3.38;0.80;;;16.50;99.90;;;;;;5061815;28;20032;-85
2021/11/05 12:08:30;;;;;;;2.78;0.57;;;16.10;99.90;;;;;;5039775;28;20032;-85
2021/11/05 12:11:14;;;;;;;3.03;0.60;;;15.70;99.90;;;;;;5081385;28;20083;-85
2021/11/05 12:13:45;;;;;;;6.75;0.77;;;15.40;99.90;;;;;;5060052;28;20131;-87
2021/11/05 12:16:22;;;;;;;5.20;0.85;;;15.20;99.90;;;;;;5056549;28;20488;-85
2021/11/05 12:19:17;;;;;;;5.13;0.60;;;15.00;99.90;;;;;;5072994;28;20087;-86
2021/11/05 12:22:07;;;;;;;4.40;0.63;;;14.70;99.90;;;;;;5040490;28;20123;-84
2021/11/05 12:24:34;;;;;;;5.43;1.02;;;14.60;99.90;;;;;;5054661;28;20087;-85
2021/11/05 12:27:16;;;;;;;4.32;0.75;;;14.40;99.90;;;;;;5023727;28;20044;-85
2021/11/05 12:29:42;;;;;;;5.80;0.70;;;14.40;99.90;;;;;;5054050;28;20116;-84
2021/11/05 12:32:17;;;;;;;1.35;0.55;;;14.20;99.90;;;;;;5054199;28;20127;-84
2021/11/05 12:35:14;;;;;;;4.63;0.47;;;14.30;99.90;;;;;;5055763;28;20210;-83
2021/11/05 12:38:08;;;;;;;5.25;0.70;;;14.30;99.90;;;;;;5055341;28;20036;-84
2021/11/05 12:40:45;;;;;;;5.32;0.70;;;14.30;99.90;;;;;;5039131;28;20059;-84
2021/11/05 12:43:23;;;;;;;4.18;0.45;;;14.30;99.90;;;;;;5055075;28;20396;-84
2021/11/05 12:45:54;;;;;;;3.67;0.85;;;14.20;99.90;;;;;;5044494;28;20050;-84
2021/11/05 12:48:56;;;;;;;3.38;0.70;;;14.20;99.90;;;;;;5054547;28;20037;-85
2021/11/05 12:51:24;;;;;;;1.77;0.52;;;14.00;99.90;;;;;;5017627;28;20511;-84
2021/11/05 12:54:27;;;;;;;3.05;0.50;;;13.80;99.90;;;;;;5056101;28;20078;-84
2021/11/05 12:56:59;;;;;;;0.93;0.43;;;13.70;99.90;;;;;;5071210;28;20055;-85
2021/11/05 12:59:32;;;;;;;1.58;0.32;;;13.60;99.90;;;;;;5073643;28;20107;-85
2021/11/05 13:02:01;;;;;;;1.45;0.35;;;13.60;99.90;;;;;;5040100;28;20044;-85